Observations for LONDON HEATHROW, United Kingdom (EGLL)

EGLL 190320Z AUTO 21012KT 6000 -RA BKN020 BKN028 BKN040 18/15 Q1012 TEMPO BKN012
EGLL 190250Z AUTO 21010KT 9999 FEW026 BKN039 18/15 Q1012 TEMPO BKN014   
EGLL 190220Z AUTO 21010KT 9999 SCT022 BKN028 BKN039 18/14 Q1012 TEMPO BKN014
EGLL 190150Z AUTO 21010KT 9999 FEW024 SCT049 18/14 Q1012 TEMPO BKN014   
EGLL 190120Z AUTO 20009KT 9999 NCD 18/14 Q1012 NOSIG
EGLL 190050Z AUTO 20009KT 9999 FEW025 18/14 Q1012 NOSIG 
EGLL 190020Z AUTO 20009KT 9999 NCD 18/14 Q1012 NOSIG
EGLL 182350Z AUTO 22008KT 9999 NCD 18/14 Q1013  
EGLL 182320Z AUTO 21008KT 9999 NCD 18/14 Q1012 NOSIG
EGLL 182250Z AUTO 21010KT 9999 NCD 18/14 Q1012 NOSIG
EGLL 182220Z AUTO 21009KT 9999 NCD 18/14 Q1012 NOSIG
EGLL 182150Z AUTO 21011KT 9999 NCD 18/15 Q1012 NOSIG
EGLL 182120Z AUTO 21012KT 180V250 9999 NCD 18/15 Q1012 NOSIG
EGLL 182050Z AUTO 21012KT 180V250 9999 FEW024 18/14 Q1012 NOSIG 
EGLL 182020Z AUTO 22012KT 9999 NCD 18/14 Q1012 NOSIG
EGLL 181950Z AUTO 21011KT 9999 NCD 19/14 Q1012 NOSIG
EGLL 181920Z AUTO 21012KT 9999 BKN043 BKN049 19/14 Q1012 NOSIG  
EGLL 181850Z AUTO 22014KT 9999 OVC043 19/14 Q1012 NOSIG 
EGLL 181820Z AUTO 21012KT 9999 SCT023 SCT044 19/14 Q1012 NOSIG  
EGLL 181750Z AUTO 22012KT 9999 FEW028 19/14 Q1012 NOSIG 
EGLL 181720Z AUTO 22013KT 9999 NCD 20/14 Q1011 NOSIG
EGLL 181650Z AUTO 22017KT 9999 FEW028 21/14 Q1011 NOSIG 
EGLL 181620Z AUTO 22015KT 190V250 9999 SCT025 BKN031 21/14 Q1011 NOSIG  
EGLL 181550Z AUTO 23018KT 9999 SCT027 SCT031 20/14 Q1011 NOSIG  
EGLL 181520Z AUTO 23018G32KT 9999 FEW033 SCT040 21/14 Q1011 NOSIG   
EGLL 181450Z AUTO 23019G29KT 9999 FEW035 22/13 Q1011 NOSIG  
EGLL 181420Z AUTO 23015KT 9999 SCT036 23/13 Q1011 NOSIG 
EGLL 181350Z AUTO 23015KT 9999 OVC036 22/13 Q1010 NOSIG 
EGLL 181320Z AUTO 25016KT 9999 BKN037 22/12 Q1010 NOSIG 
EGLL 181250Z AUTO 24016KT 9999 NCD 23/12 Q1010 NOSIG
EGLL 181220Z AUTO 24015KT 9999 FEW036 22/12 Q1010 NOSIG 
EGLL 181150Z AUTO 24015KT 9999 FEW035 21/12 Q1010 NOSIG 
EGLL 181120Z AUTO 24019KT 9999 FEW033 21/12 Q1009 NOSIG 
EGLL 181050Z AUTO 23017KT 9999 BKN031 20/12 Q1009 NOSIG 
EGLL 181020Z AUTO 24018KT 9999 BKN029 BKN034 21/12 Q1009 NOSIG  
EGLL 180950Z AUTO 24017KT 9999 BKN024 20/13 Q1008 NOSIG 
EGLL 180920Z AUTO 23016KT 9999 BKN018 BKN022 OVC027 19/14 Q1008 NOSIG   
EGLL 180850Z AUTO 22018KT 9999 BKN016 OVC028 18/14 Q1007 NOSIG  
EGLL 180820Z AUTO 22016G26KT 180V250 9999 BKN015 OVC023 19/15 Q1006 NOSIG   
EGLL 180750Z AUTO 22015KT 9999 BKN015 OVC019 18/15 Q1006 NOSIG  
EGLL 180720Z AUTO 21014G24KT 9999 BKN015 OVC021 18/15 Q1006 TEMPO BKN014
EGLL 180650Z AUTO 21016KT 9999 BKN014 OVC019 18/15 Q1006 NOSIG  
EGLL 180620Z AUTO 22015G25KT 190V250 9999 BKN016 OVC030 18/15 Q1005 NOSIG   
EGLL 180550Z AUTO 22017G32KT 9999 BKN020 19/14 Q1005 NOSIG  
EGLL 180520Z AUTO 23017KT 190V250 9999 BKN020 OVC032 19/15 Q1005 NOSIG  
EGLL 180450Z AUTO 21016KT 9999 SCT016 BKN023 BKN029 19/15 Q1005 NOSIG   
EGLL 180420Z AUTO 21014G25KT 9999 BKN019 OVC032 19/15 Q1005 NOSIG   
EGLL 180350Z AUTO 21014KT 9999 BKN021 OVC030 19/15 Q1005 NOSIG  
EGLL 180320Z AUTO 20013KT 9999 BKN027 19/15 Q1005 NOSIG 
EGLL 180250Z AUTO 20010KT 9999 BKN021 19/15 Q1005 NOSIG